createdAt,value
2023-08-14T00:00:57.675Z,17.30
2023-08-14T00:03:24.978Z,17.40
2023-08-14T00:05:52.481Z,17.30
2023-08-14T00:08:20.357Z,17.30
2023-08-14T00:10:47.632Z,17.30
2023-08-14T00:13:14.708Z,17.20
2023-08-14T00:15:41.903Z,17.10
2023-08-14T00:18:09.156Z,17.10
2023-08-14T00:20:36.249Z,17.00
2023-08-14T00:23:03.548Z,16.90
2023-08-14T00:25:30.967Z,16.90
2023-08-14T00:27:58.192Z,16.80
2023-08-14T00:30:25.249Z,16.70
2023-08-14T00:32:52.448Z,16.70
2023-08-14T00:35:20.369Z,16.70
2023-08-14T00:37:49.769Z,16.70
2023-08-14T00:40:18.304Z,16.60
2023-08-14T00:42:47.488Z,16.60
2023-08-14T00:45:14.691Z,16.50
2023-08-14T00:47:45.436Z,16.50
2023-08-14T00:50:13.301Z,16.50
2023-08-14T00:52:44.313Z,16.50
2023-08-14T00:55:18.458Z,16.50
2023-08-14T00:57:46.235Z,16.40
2023-08-14T01:00:14.726Z,16.30
2023-08-14T01:02:43.642Z,16.30
2023-08-14T01:05:11.232Z,16.30
2023-08-14T01:07:39.048Z,16.20
2023-08-14T01:10:09.025Z,16.20
2023-08-14T01:12:59.748Z,16.20
2023-08-14T01:15:33.319Z,16.20
2023-08-14T01:18:02.867Z,16.20
2023-08-14T01:20:33.511Z,16.20
2023-08-14T01:23:07.833Z,16.10
2023-08-14T01:25:38.660Z,16.10
2023-08-14T01:28:07.079Z,16.10
2023-08-14T01:30:34.290Z,16.10
2023-08-14T01:33:01.717Z,16.10
2023-08-14T01:35:53.707Z,16.10
2023-08-14T01:38:32.827Z,16.10
2023-08-14T01:41:23.711Z,16.10
2023-08-14T01:43:56.432Z,16.00
2023-08-14T01:46:25.662Z,15.90
2023-08-14T01:48:56.053Z,15.90
2023-08-14T01:51:24.655Z,15.90
2023-08-14T01:53:51.786Z,15.90
2023-08-14T01:56:18.908Z,15.90
2023-08-14T01:58:46.020Z,15.80
2023-08-14T02:01:13.208Z,15.80
2023-08-14T02:03:40.408Z,15.80
2023-08-14T02:06:07.717Z,15.80
2023-08-14T02:08:34.853Z,15.70
2023-08-14T02:11:07.996Z,15.70
2023-08-14T02:13:35.600Z,15.70
2023-08-14T02:16:04.403Z,15.70
2023-08-14T02:18:32.064Z,15.70
2023-08-14T02:20:59.255Z,15.70
2023-08-14T02:23:26.429Z,15.70
2023-08-14T02:25:56.263Z,15.70
2023-08-14T02:28:23.506Z,15.70
2023-08-14T02:30:50.631Z,15.60
2023-08-14T02:33:18.928Z,15.70
2023-08-14T02:35:46.700Z,15.60
2023-08-14T02:38:16.418Z,15.60
2023-08-14T02:40:44.801Z,15.60
2023-08-14T02:43:11.918Z,15.50
2023-08-14T02:45:39.604Z,15.60
2023-08-14T02:48:06.935Z,15.60
2023-08-14T02:50:34.146Z,15.50
2023-08-14T02:53:01.329Z,15.50
2023-08-14T02:55:28.687Z,15.40
2023-08-14T02:57:55.899Z,15.40
2023-08-14T03:00:23.123Z,15.30
2023-08-14T03:02:50.505Z,15.30
2023-08-14T03:05:18.035Z,15.30
2023-08-14T03:07:45.214Z,15.20
2023-08-14T03:10:12.308Z,15.20
2023-08-14T03:12:39.555Z,15.20
2023-08-14T03:15:07.665Z,15.20
2023-08-14T03:17:34.750Z,15.20
2023-08-14T03:20:02.049Z,15.20
2023-08-14T03:22:29.508Z,15.10
2023-08-14T03:24:56.790Z,15.10
2023-08-14T03:27:24.013Z,15.10
2023-08-14T03:29:51.350Z,15.10
2023-08-14T03:32:19.000Z,15.10
2023-08-14T03:34:46.766Z,15.10
2023-08-14T03:37:13.921Z,15.10
2023-08-14T03:39:41.287Z,15.10
2023-08-14T03:42:09.370Z,15.10
2023-08-14T03:44:36.602Z,15.10
2023-08-14T03:47:03.821Z,15.00
2023-08-14T03:49:31.017Z,15.00
2023-08-14T03:51:58.272Z,14.90
2023-08-14T03:54:25.390Z,14.80
2023-08-14T03:56:52.871Z,14.80
2023-08-14T03:59:20.014Z,14.70
2023-08-14T04:01:47.132Z,14.80
2023-08-14T04:04:14.408Z,14.70
2023-08-14T04:06:41.748Z,14.70
2023-08-14T04:09:10.411Z,14.80
2023-08-14T04:11:37.618Z,14.80
2023-08-14T04:14:04.866Z,14.80
2023-08-14T04:16:47.596Z,14.80
2023-08-14T04:19:16.668Z,14.80
2023-08-14T04:21:44.397Z,14.80
2023-08-14T04:24:11.855Z,14.90
2023-08-14T04:26:39.915Z,14.90
2023-08-14T04:29:09.283Z,14.90
2023-08-14T04:31:39.097Z,14.90
2023-08-14T04:34:06.822Z,15.00
2023-08-14T04:36:36.360Z,15.00
2023-08-14T04:39:05.631Z,15.10
2023-08-14T04:41:32.886Z,15.20
2023-08-14T04:44:01.424Z,15.20
2023-08-14T04:46:53.305Z,15.30
2023-08-14T04:49:26.385Z,15.50
2023-08-14T04:51:53.494Z,15.60
2023-08-14T04:54:20.805Z,15.80
2023-08-14T04:56:47.975Z,15.90
2023-08-14T04:59:16.384Z,16.00
2023-08-14T05:01:44.329Z,16.10
2023-08-14T05:04:13.177Z,16.10
2023-08-14T05:06:40.380Z,16.20
2023-08-14T05:09:24.257Z,16.30
2023-08-14T05:11:55.438Z,16.50
2023-08-14T05:14:22.681Z,16.80
2023-08-14T05:16:49.940Z,17.00
2023-08-14T05:19:17.421Z,17.30
2023-08-14T05:21:46.371Z,17.50
2023-08-14T05:24:15.500Z,17.80
2023-08-14T05:26:42.939Z,18.00
2023-08-14T05:29:10.076Z,18.10
2023-08-14T05:31:37.312Z,18.20
2023-08-14T05:34:04.636Z,18.20
2023-08-14T05:36:31.823Z,18.20
2023-08-14T05:38:59.016Z,18.20
2023-08-14T05:41:26.165Z,18.10
2023-08-14T05:43:53.332Z,18.10
2023-08-14T05:46:23.448Z,18.10
2023-08-14T05:48:50.648Z,18.20
2023-08-14T05:51:17.794Z,18.30
2023-08-14T05:53:44.953Z,18.40
2023-08-14T05:56:12.151Z,18.40
2023-08-14T05:58:39.368Z,18.30
2023-08-14T06:01:06.482Z,18.40
2023-08-14T06:03:44.270Z,18.60
2023-08-14T06:06:12.918Z,19.60
2023-08-14T06:08:40.102Z,21.60
2023-08-14T06:11:07.251Z,23.80
2023-08-14T06:13:34.434Z,25.90
2023-08-14T06:16:01.742Z,27.80
2023-08-14T06:18:28.841Z,29.20
2023-08-14T06:20:56.105Z,30.80
2023-08-14T06:23:23.213Z,31.90
2023-08-14T06:25:50.478Z,33.40
2023-08-14T06:28:17.586Z,34.40
2023-08-14T06:30:44.901Z,34.10
2023-08-14T06:33:12.594Z,34.50
2023-08-14T06:35:41.097Z,34.10
2023-08-14T06:38:08.228Z,34.30
2023-08-14T06:40:35.354Z,34.30
2023-08-14T06:43:04.292Z,33.60
2023-08-14T06:45:31.509Z,33.50
2023-08-14T06:47:58.824Z,33.80
2023-08-14T06:50:25.968Z,34.10
2023-08-14T06:52:53.926Z,33.50
2023-08-14T06:55:22.121Z,34.00
2023-08-14T06:57:49.452Z,34.30
2023-08-14T07:00:16.988Z,34.10
2023-08-14T07:02:46.887Z,33.70
2023-08-14T07:05:14.513Z,33.10
2023-08-14T07:07:41.847Z,33.40
2023-08-14T07:10:09.427Z,34.30
2023-08-14T07:12:36.514Z,34.30
2023-08-14T07:15:06.226Z,34.70
2023-08-14T07:17:33.885Z,34.90
2023-08-14T07:20:01.280Z,34.90
2023-08-14T07:22:28.430Z,35.60
2023-08-14T07:24:55.575Z,36.30
2023-08-14T07:27:24.446Z,36.70
2023-08-14T07:29:51.765Z,37.30
2023-08-14T07:32:19.064Z,37.60
2023-08-14T07:34:46.563Z,38.00
2023-08-14T07:37:13.768Z,38.20
2023-08-14T07:39:40.950Z,38.90
2023-08-14T07:42:08.110Z,38.80
2023-08-14T07:44:35.270Z,38.80
2023-08-14T07:47:02.370Z,38.70
2023-08-14T07:49:29.581Z,39.50
2023-08-14T07:51:56.857Z,39.30
2023-08-14T07:54:23.955Z,38.90
2023-08-14T07:56:53.571Z,39.50
2023-08-14T07:59:20.756Z,38.70
2023-08-14T08:01:47.910Z,38.80
2023-08-14T08:04:26.568Z,39.30
2023-08-14T08:06:54.102Z,39.30
2023-08-14T08:09:21.233Z,39.00
2023-08-14T08:11:50.284Z,39.20
2023-08-14T08:14:17.891Z,39.70
2023-08-14T08:16:46.031Z,39.80
2023-08-14T08:19:13.323Z,40.00
2023-08-14T08:21:40.901Z,39.60
2023-08-14T08:24:09.261Z,39.60
2023-08-14T08:26:37.203Z,39.50
2023-08-14T08:29:06.834Z,40.00
2023-08-14T08:31:34.391Z,40.40
2023-08-14T08:34:01.497Z,40.00
2023-08-14T08:36:28.731Z,40.10
2023-08-14T08:38:55.794Z,40.10
2023-08-14T08:41:26.840Z,40.50
2023-08-14T08:44:04.295Z,39.60
2023-08-14T08:46:36.732Z,39.30
2023-08-14T08:49:05.364Z,38.50
2023-08-14T08:51:34.141Z,37.40
2023-08-14T08:54:02.764Z,35.90
2023-08-14T08:56:30.339Z,34.90
2023-08-14T08:58:58.176Z,34.00
2023-08-14T09:01:25.327Z,32.90
2023-08-14T09:03:52.706Z,32.30
2023-08-14T09:06:19.995Z,32.00
2023-08-14T09:08:47.065Z,31.70
2023-08-14T09:11:14.244Z,31.80
2023-08-14T09:13:41.849Z,31.50
2023-08-14T09:16:09.762Z,31.50
2023-08-14T09:18:36.918Z,31.20
2023-08-14T09:21:04.632Z,31.20
2023-08-14T09:23:33.569Z,31.30
2023-08-14T09:26:00.923Z,31.60
2023-08-14T09:28:28.466Z,31.80
2023-08-14T09:31:06.974Z,31.40
2023-08-14T09:33:34.510Z,30.90
2023-08-14T09:36:01.716Z,30.60
2023-08-14T09:38:28.968Z,30.70
2023-08-14T09:40:59.059Z,30.80
2023-08-14T09:43:27.194Z,31.00
2023-08-14T09:45:55.278Z,31.00
2023-08-14T09:48:24.022Z,31.10
2023-08-14T09:50:52.783Z,30.90
2023-08-14T09:53:20.172Z,30.80
2023-08-14T09:55:47.499Z,30.80
2023-08-14T09:58:14.675Z,30.70
2023-08-14T10:00:42.201Z,30.40
2023-08-14T10:03:10.630Z,30.30
2023-08-14T10:05:39.120Z,30.30
2023-08-14T10:08:09.980Z,30.40
2023-08-14T10:10:40.098Z,30.60
2023-08-14T10:13:09.942Z,30.70
2023-08-14T10:15:42.940Z,30.60
2023-08-14T10:18:16.628Z,30.50
2023-08-14T10:20:49.279Z,30.50
2023-08-14T10:23:17.733Z,30.70
2023-08-14T10:25:48.793Z,30.70
2023-08-14T10:28:16.574Z,30.70
2023-08-14T10:30:44.281Z,30.60
2023-08-14T10:33:12.943Z,30.60
2023-08-14T10:35:57.093Z,30.70
2023-08-14T10:38:39.865Z,30.60
2023-08-14T10:41:08.458Z,30.40
2023-08-14T10:43:35.778Z,30.40
2023-08-14T10:46:19.235Z,30.60
2023-08-14T10:48:50.060Z,30.70
2023-08-14T10:51:22.364Z,30.70
2023-08-14T10:53:49.531Z,30.40
2023-08-14T10:56:17.126Z,30.50
2023-08-14T10:58:48.828Z,30.70
2023-08-14T11:01:18.247Z,30.50
2023-08-14T11:04:06.306Z,30.40
2023-08-14T11:07:12.721Z,30.50
2023-08-14T11:09:41.178Z,30.40
2023-08-14T11:12:10.740Z,30.60
2023-08-14T11:14:40.545Z,30.70
2023-08-14T11:17:09.477Z,30.70
2023-08-14T11:19:38.599Z,30.90
2023-08-14T11:22:06.290Z,31.00
2023-08-14T11:24:33.982Z,30.80
2023-08-14T11:27:02.193Z,31.10
2023-08-14T11:29:31.759Z,31.00
2023-08-14T11:32:01.627Z,31.10
2023-08-14T11:34:29.670Z,30.90
2023-08-14T11:39:30.338Z,30.70
2023-08-14T11:41:57.795Z,30.80
2023-08-14T11:44:24.885Z,30.80
2023-08-14T11:46:52.159Z,30.60
2023-08-14T11:49:19.378Z,30.60
2023-08-14T11:51:47.367Z,30.30
2023-08-14T11:54:15.483Z,30.50
2023-08-14T11:56:42.678Z,30.70
2023-08-14T11:59:09.966Z,30.60
2023-08-14T12:01:39.072Z,30.70
2023-08-14T12:04:08.159Z,30.90
2023-08-14T12:06:36.125Z,30.80
2023-08-14T12:09:06.950Z,30.90
2023-08-14T12:11:34.165Z,31.00
2023-08-14T12:14:06.058Z,31.10
2023-08-14T12:16:33.551Z,30.90
2023-08-14T12:19:04.355Z,30.90
2023-08-14T12:21:31.789Z,30.90
2023-08-14T12:23:58.850Z,30.70
2023-08-14T12:26:27.343Z,30.50
2023-08-14T12:28:54.482Z,30.40
2023-08-14T12:31:21.787Z,30.40
2023-08-14T12:33:53.526Z,30.50
2023-08-14T12:36:23.848Z,30.50
2023-08-14T12:38:51.116Z,30.50
2023-08-14T12:41:18.341Z,30.60
2023-08-14T12:43:45.577Z,30.70
2023-08-14T12:46:12.930Z,30.80
2023-08-14T12:48:40.231Z,30.90
2023-08-14T12:53:35.410Z,31.00
2023-08-14T12:56:04.115Z,31.10
2023-08-14T12:58:32.257Z,30.90
2023-08-14T13:01:04.938Z,30.80
2023-08-14T13:03:37.084Z,30.70
2023-08-14T13:06:08.318Z,30.40
2023-08-14T13:08:35.490Z,30.10
2023-08-14T13:11:02.628Z,30.10
2023-08-14T13:13:30.802Z,30.10
2023-08-14T13:15:58.029Z,30.20
2023-08-14T13:18:25.300Z,30.50
2023-08-14T13:20:52.492Z,30.60
2023-08-14T13:23:19.989Z,30.70
2023-08-14T13:25:47.556Z,30.80
2023-08-14T13:28:14.821Z,30.70
2023-08-14T13:30:44.357Z,30.70
2023-08-14T13:33:13.306Z,30.70
2023-08-14T13:35:40.449Z,30.80
2023-08-14T13:38:07.606Z,30.70
2023-08-14T13:40:35.014Z,30.70
2023-08-14T13:43:02.465Z,30.80
2023-08-14T13:45:30.783Z,30.70
2023-08-14T13:47:59.092Z,30.40
2023-08-14T13:50:33.314Z,30.40
2023-08-14T13:53:02.904Z,30.60
2023-08-14T13:55:31.836Z,30.80
2023-08-14T13:58:00.175Z,30.70
2023-08-14T14:00:30.299Z,30.90
2023-08-14T14:02:59.398Z,31.00
2023-08-14T14:05:28.076Z,31.10
2023-08-14T14:07:57.505Z,30.80
2023-08-14T14:10:26.072Z,30.70
2023-08-14T14:15:23.680Z,30.70
2023-08-14T14:17:51.164Z,30.80
2023-08-14T14:20:18.358Z,30.80
2023-08-14T14:22:45.528Z,30.70
2023-08-14T14:25:14.070Z,30.60
2023-08-14T14:27:41.425Z,30.40
2023-08-14T14:30:09.174Z,30.10
2023-08-14T14:32:36.806Z,30.10
2023-08-14T14:35:04.542Z,30.10
2023-08-14T14:37:31.945Z,30.10
2023-08-14T14:39:59.214Z,30.10
2023-08-14T14:42:26.553Z,30.10
2023-08-14T14:44:55.462Z,30.20
2023-08-14T14:47:24.503Z,30.30
2023-08-14T14:49:52.478Z,30.30
2023-08-14T14:52:20.087Z,30.10
2023-08-14T14:54:47.274Z,30.00
2023-08-14T14:57:14.490Z,29.70
2023-08-14T14:59:42.779Z,29.70
2023-08-14T15:02:23.588Z,29.50
2023-08-14T15:04:56.928Z,29.40
2023-08-14T15:07:24.011Z,29.40
2023-08-14T15:09:51.516Z,29.40
2023-08-14T15:12:18.619Z,29.40
2023-08-14T15:14:46.312Z,29.30
2023-08-14T15:17:13.453Z,29.20
2023-08-14T15:19:41.856Z,29.00
2023-08-14T15:22:09.126Z,29.00
2023-08-14T15:24:37.067Z,29.00
2023-08-14T15:27:04.364Z,29.10
2023-08-14T15:29:31.556Z,29.00
2023-08-14T15:31:58.685Z,29.00
2023-08-14T15:34:25.921Z,28.90
2023-08-14T15:36:53.621Z,28.90
2023-08-14T15:39:21.194Z,28.70
2023-08-14T15:41:48.264Z,28.80
2023-08-14T15:44:15.654Z,28.60
2023-08-14T15:46:42.786Z,28.60
2023-08-14T15:49:10.109Z,28.50
2023-08-14T15:51:37.493Z,28.60
2023-08-14T15:54:04.951Z,28.50
2023-08-14T15:56:32.114Z,28.30
2023-08-14T15:58:59.355Z,28.10
2023-08-14T16:01:26.905Z,28.10
2023-08-14T16:03:54.132Z,28.00
2023-08-14T16:06:22.405Z,27.90
2023-08-14T16:08:49.990Z,27.90
2023-08-14T16:11:17.290Z,27.80
2023-08-14T16:13:44.623Z,27.80
2023-08-14T16:16:11.822Z,27.70
2023-08-14T16:18:38.958Z,27.60
2023-08-14T16:21:07.799Z,27.60
2023-08-14T16:23:35.194Z,27.50
2023-08-14T16:26:02.351Z,27.40
2023-08-14T16:28:29.567Z,27.30
2023-08-14T16:30:56.781Z,27.30
2023-08-14T16:33:24.112Z,27.20
2023-08-14T16:35:53.149Z,27.10
2023-08-14T16:38:20.586Z,27.00
2023-08-14T16:40:47.932Z,27.00
2023-08-14T16:43:15.414Z,26.90
2023-08-14T16:45:48.305Z,26.80
2023-08-14T16:48:17.372Z,26.80
2023-08-14T16:50:45.272Z,26.70
2023-08-14T16:53:12.631Z,26.60
2023-08-14T16:55:39.962Z,26.50
2023-08-14T16:58:07.064Z,26.40
2023-08-14T17:00:34.282Z,26.30
2023-08-14T17:03:03.757Z,26.30
2023-08-14T17:05:32.992Z,26.10
2023-08-14T17:08:00.399Z,26.10
2023-08-14T17:10:27.507Z,25.90
2023-08-14T17:12:54.607Z,25.80
2023-08-14T17:15:21.985Z,25.70
2023-08-14T17:17:49.757Z,25.50
2023-08-14T17:20:17.130Z,25.40
2023-08-14T17:22:44.499Z,25.20
2023-08-14T17:25:12.244Z,25.10
2023-08-14T17:27:39.581Z,24.90
2023-08-14T17:30:07.605Z,24.70
2023-08-14T17:32:35.030Z,24.60
2023-08-14T17:35:02.339Z,24.40
2023-08-14T17:37:29.447Z,24.30
2023-08-14T17:39:56.631Z,24.10
2023-08-14T17:42:23.994Z,24.00
2023-08-14T17:44:51.366Z,23.80
2023-08-14T17:47:18.974Z,23.60
2023-08-14T17:49:46.879Z,23.50
2023-08-14T17:52:14.008Z,23.40
2023-08-14T17:54:42.007Z,23.20
2023-08-14T17:57:09.092Z,23.10
2023-08-14T17:59:37.195Z,23.00
2023-08-14T18:02:04.597Z,22.80
2023-08-14T18:04:31.976Z,22.70
2023-08-14T18:07:00.011Z,22.50
2023-08-14T18:09:27.647Z,22.40
2023-08-14T18:11:55.228Z,22.30
2023-08-14T18:14:23.105Z,22.20
2023-08-14T18:16:50.481Z,22.00
2023-08-14T18:21:48.081Z,21.80
2023-08-14T18:24:15.295Z,21.70
2023-08-14T18:26:42.411Z,21.70
2023-08-14T18:29:09.528Z,21.60
2023-08-14T18:31:37.471Z,21.50
2023-08-14T18:34:04.964Z,21.40
2023-08-14T18:36:34.623Z,21.30
2023-08-14T18:39:02.033Z,21.30
2023-08-14T18:41:29.449Z,21.20
2023-08-14T18:43:57.039Z,21.10
2023-08-14T18:46:24.269Z,21.00
2023-08-14T18:48:51.402Z,20.90
2023-08-14T18:51:18.521Z,20.90
2023-08-14T18:53:45.989Z,20.80
2023-08-14T18:56:13.650Z,20.70
2023-08-14T18:58:41.065Z,20.70
2023-08-14T19:01:08.172Z,20.60
2023-08-14T19:03:35.403Z,20.60
2023-08-14T19:06:03.328Z,20.50
2023-08-14T19:08:30.512Z,20.50
2023-08-14T19:10:57.877Z,20.40
2023-08-14T19:13:25.106Z,20.30
2023-08-14T19:15:52.600Z,20.20
2023-08-14T19:18:19.768Z,20.20
2023-08-14T19:20:46.962Z,20.10
2023-08-14T19:23:14.269Z,20.00
2023-08-14T19:25:41.580Z,20.00
2023-08-14T19:28:21.022Z,19.90
2023-08-14T19:30:50.638Z,19.90
2023-08-14T19:33:17.894Z,19.80
2023-08-14T19:35:45.305Z,19.80
2023-08-14T19:38:12.623Z,19.80
2023-08-14T19:40:39.879Z,19.70
2023-08-14T19:43:07.775Z,19.70
2023-08-14T19:45:36.767Z,19.60
2023-08-14T19:48:04.984Z,19.60
2023-08-14T19:50:33.945Z,19.60
2023-08-14T19:53:01.700Z,19.60
2023-08-14T19:55:29.494Z,19.50
2023-08-14T19:57:56.761Z,19.50
2023-08-14T20:00:24.231Z,19.50
2023-08-14T20:02:54.011Z,19.50
2023-08-14T20:05:21.447Z,19.50
2023-08-14T20:07:48.696Z,19.40
2023-08-14T20:10:17.331Z,19.40
2023-08-14T20:12:44.702Z,19.40
2023-08-14T20:15:11.878Z,19.40
2023-08-14T20:17:39.137Z,19.30
2023-08-14T20:20:08.093Z,19.30
2023-08-14T20:22:35.234Z,19.30
2023-08-14T20:25:02.775Z,19.30
2023-08-14T20:27:29.851Z,19.20
2023-08-14T20:29:57.104Z,19.20
2023-08-14T20:32:24.153Z,19.10
2023-08-14T20:34:51.286Z,19.00
2023-08-14T20:37:18.672Z,18.90
2023-08-14T20:39:47.351Z,18.90
2023-08-14T20:42:14.443Z,18.80
2023-08-14T20:44:41.669Z,18.80
2023-08-14T20:47:09.317Z,18.70
2023-08-14T20:49:36.457Z,18.70
2023-08-14T20:52:04.246Z,18.70
2023-08-14T20:54:31.684Z,18.70
2023-08-14T20:56:59.640Z,18.70
2023-08-14T20:59:26.845Z,18.60
2023-08-14T21:01:55.692Z,18.60
2023-08-14T21:04:23.281Z,18.60
2023-08-14T21:06:50.327Z,18.60
2023-08-14T21:09:17.908Z,18.60
2023-08-14T21:11:45.008Z,18.60
2023-08-14T21:14:12.408Z,18.60
2023-08-14T21:16:40.352Z,18.60
2023-08-14T21:19:08.089Z,18.50
2023-08-14T21:21:35.242Z,18.50
2023-08-14T21:24:02.456Z,18.50
2023-08-14T21:26:31.231Z,18.40
2023-08-14T21:28:58.674Z,18.40
2023-08-14T21:31:25.932Z,18.30
2023-08-14T21:33:53.121Z,18.20
2023-08-14T21:36:20.225Z,18.20
2023-08-14T21:38:47.326Z,18.20
2023-08-14T21:41:14.501Z,18.10
2023-08-14T21:43:43.010Z,18.00
2023-08-14T21:46:10.288Z,17.90
2023-08-14T21:48:37.462Z,17.90
2023-08-14T21:51:04.929Z,17.90
2023-08-14T21:53:32.248Z,17.80
2023-08-14T21:55:59.284Z,17.80
2023-08-14T21:58:26.382Z,17.70
2023-08-14T22:00:53.986Z,17.70
2023-08-14T22:03:21.130Z,17.70
2023-08-14T22:05:48.700Z,17.60
2023-08-14T22:08:15.759Z,17.70
2023-08-14T22:10:43.134Z,17.60
2023-08-14T22:13:10.215Z,17.50
2023-08-14T22:15:46.154Z,17.60
2023-08-14T22:18:15.256Z,17.50
2023-08-14T22:20:43.762Z,17.60
2023-08-14T22:23:13.886Z,17.60
2023-08-14T22:25:43.647Z,17.60
2023-08-14T22:28:10.891Z,17.70
2023-08-14T22:30:38.208Z,17.70
2023-08-14T22:33:05.748Z,17.70
2023-08-14T22:35:32.897Z,17.50
2023-08-14T22:38:00.069Z,17.50
2023-08-14T22:40:27.225Z,17.50
2023-08-14T22:42:56.062Z,17.40
2023-08-14T22:45:25.391Z,17.40
2023-08-14T22:47:52.721Z,17.40
2023-08-14T22:50:20.035Z,17.40
2023-08-14T22:52:47.058Z,17.40
2023-08-14T22:55:14.555Z,17.30
2023-08-14T22:57:41.602Z,17.30
2023-08-14T23:00:10.515Z,17.20
2023-08-14T23:02:39.667Z,17.20
2023-08-14T23:05:08.459Z,17.10
2023-08-14T23:07:36.281Z,17.00
2023-08-14T23:10:03.482Z,17.00
2023-08-14T23:12:30.618Z,17.00
2023-08-14T23:14:57.870Z,17.00
2023-08-14T23:17:25.705Z,17.00
2023-08-14T23:19:53.419Z,17.00
2023-08-14T23:22:23.023Z,17.00
2023-08-14T23:24:50.319Z,16.90
2023-08-14T23:27:17.608Z,16.90
2023-08-14T23:29:45.040Z,16.90
2023-08-14T23:32:12.147Z,16.80
2023-08-14T23:34:40.739Z,16.80
2023-08-14T23:37:08.304Z,16.80
2023-08-14T23:39:35.670Z,16.80
2023-08-14T23:42:02.912Z,16.80
2023-08-14T23:44:30.396Z,16.70
2023-08-14T23:46:57.750Z,16.70
2023-08-14T23:49:25.331Z,16.60
2023-08-14T23:51:52.386Z,16.60
2023-08-14T23:54:20.110Z,16.60
2023-08-14T23:56:47.434Z,16.60
2023-08-14T23:59:14.798Z,16.60
